National Weather Service United States Department of Commerce

Aviation Forecast Discussion

.AVIATION /00Z SUNDAY THROUGH THURSDAY/...
The following discussion is for KPHL, KPNE, KTTN, KABE, KRDG, 
KILG, KMIV, KACY and surrounding areas.

Overnight...Mainly VFR ceilings. Scattered showers after 06Z. 
Areas of MVFR ceilings may develop after 09Z. South to southwest
wind less than 10 knots. Medium confidence.

Sunday...MVFR ceilings are possible until about 15Z, especially
from around KPHL northward. Otherwise, generally VFR with 
scattered showers and thunderstorms in the afternoon. South to 
southwest wind increasing to 8 to 14 knots with gusts around 18 
to 22 knots. Medium confidence.

Outlook...

Sunday night...Prevailing VFR with westerly winds 5 kts or 
less. Lingering showers and thunderstorms possible along and 
south/east of I-95.

Monday... Mainly VFR. A few showers and thunderstorms possible,
mainly from ILG to PHL/PNE to TTN south and east, which then 
dissipate in the evening. Westerly winds around 5 knots, however
southwesterly at ACY, then becoming light and variable to calm 
at night. Moderate confidence.

Tuesday...VFR. A shower or thunderstorm possible at night near 
and north of TTN to ABE. Light and variable winds becoming west 
to northwest around 5 knots, except becoming southeasterly at 
ACY due to a sea breeze (winds becoming light and variable to 
calm at night). Moderate confidence.

Wednesday and Thursday...Mainly VFR. Some mainly afternoon and 
evening showers and thunderstorms possible each day. Westerly 
winds around 5 knots Wednesday becoming southerly at ACY, 
becoming light and variable at night, then becoming west- 
southwest 5-10 knots Thursday. Moderate confidence.

&&

Latest PHL Terminal Aerodrome Forecast (TAF)

FTNA35 KPHL 250241 RRB
KPHL 250233Z 2503/2606 19008KT P6SM BKN090
     TEMPO 2508/2511 -SHRA OVC040
     FM251100 21010KT P6SM SCT025 BKN040
     TEMPO 2511/2515 BKN025 OVC040
     FM251500 23010G18KT P6SM BKN050
     FM252200 23010KT P6SM VCTS SCT050CB
     FM260200 23004KT P6SM SCT050

Latest Area Terminal Aerodrome Forecasts (TAFs)

FTUS51 KPNE 242330 RRA
KPNE 242327Z 2500/2524 19006KT P6SM BKN250
     FM250400 20006KT P6SM BKN100
      TEMPO 2508/2511 -SHRA OVC040
     FM251100 21008KT P6SM SCT025 BKN040
      TEMPO 2511/2515 BKN025 OVC040
     FM251500 23010G18KT P6SM BKN050
     FM252200 24008KT P6SM VCTS SCT050CB

FTUS80 KTTN 242330 RRG
KTTN 242327Z 2500/2524 18008KT P6SM BKN250
     FM250300 20006KT P6SM BKN100
      TEMPO 2507/2510 -SHRA OVC040
     FM251000 21008KT P6SM SCT025 BKN040
      TEMPO 2511/2515 BKN025 OVC040
     FM251500 23010G18KT P6SM BKN050
     FM252100 25008KT P6SM VCTS SCT050CB

FTUS41 KILG 242330
KILG 242327Z 2500/2524 17010KT P6SM BKN250
     FM250400 18008KT P6SM BKN100
      TEMPO 2508/2511 -SHRA OVC040
     FM251100 19008KT P6SM SCT025 BKN040
     FM251500 22010G18KT P6SM BKN050
     FM252200 23008KT P6SM VCTS SCT050CB

FTUS51 KRDG 242330 RRA
KRDG 242327Z 2500/2524 18006KT P6SM BKN250
     FM250200 18006KT P6SM BKN100
      TEMPO 2506/2509 -SHRA OVC040
     FM250900 19006KT P6SM SCT025 BKN040
      TEMPO 2510/2514 BKN025 OVC040
     FM251400 22008KT P6SM BKN050
     FM251900 26008KT P6SM VCTS SCT050CB
     FM252300 VRB03KT P6SM SCT050

FTUS41 KABE 242330
KABE 242327Z 2500/2524 20006KT P6SM BKN250
     FM250200 19006KT P6SM BKN100
      TEMPO 2506/2509 -SHRA OVC040
     FM250900 18006KT P6SM SCT025 BKN040
      TEMPO 2510/2514 BKN025 OVC040
     FM251400 22008KT P6SM BKN050
     FM251900 25008KT P6SM VCTS SCT050CB
     FM252300 VRB03KT P6SM SCT050

FTUS51 KACY 242330
KACY 242327Z 2500/2524 19006KT P6SM BKN250
     FM250500 19008KT P6SM BKN100
      TEMPO 2509/2512 -SHRA OVC040
     FM251300 21014G22KT P6SM BKN050
     FM251700 22014G22KT P6SM SCT050
     FM252300 21008KT P6SM SCT050

FTUS51 KMIV 242330 RRA
KMIV 242327Z 2500/2524 VRB03KT P6SM BKN250
     FM250500 19006KT P6SM BKN100
      TEMPO 2509/2512 -SHRA OVC040
     FM251300 22010G18KT P6SM BKN050
     FM251700 22010G18KT P6SM SCT050
     FM252300 23004KT P6SM SCT050

FTUS80 KEWR 250221 AAA
KEWR 250220Z 2502/2606 18007KT P6SM SCT150 BKN250
     FM250400 20007KT P6SM SCT150 BKN250
     FM250700 21007KT P6SM -SHRA BKN040
      TEMPO 2508/2512 5SM SHRA BKN025
     FM251200 21012G17KT P6SM BKN025
     FM251700 23010G16KT P6SM SCT035 BKN050 PROB30 2519/2524 5SM
      -TSRA BKN025CB BKN040
     FM260000 23008KT P6SM SCT035 BKN050

FTUS80 KLGA 250221 AAB
KLGA 250220Z 2502/2606 18012KT P6SM SCT060
     FM250400 20008KT P6SM SCT150 BKN250
     FM250700 20010KT P6SM -SHRA BKN040
      TEMPO 2508/2512 5SM SHRA BKN025
     FM251200 21014G20KT P6SM BKN025
     FM251700 20012KT P6SM SCT035 BKN050 PROB30 2519/2524 5SM
      -TSRA
      BKN025CB BKN040
     FM260000 21010KT P6SM SCT035 BKN050

FTNA35 KJFK 250227 RRA
KJFK 250220Z 2502/2606 16008KT P6SM FEW060
     FM250400 20010KT P6SM SCT150 BKN250
     FM250600 21012KT P6SM -SHRA BKN040
     TEMPO 2508/2512 5SM SHRA BKN025
     FM251200 19017G22KT P6SM BKN025
     FM251700 18016KT P6SM SCT035 BKN050
     PROB30 2519/2524 5SM -TSRA BKN025CB BKN040
     FM260000 20012KT P6SM SCT035 BKN050

FTUS41 KMDT 250321 AAA
KMDT 250317Z 2503/2524 16007KT P6SM BKN060
     FM251500 26008KT P6SM VCSH BKN050
     FM252200 28007KT P6SM BKN050

FTUS80 KBWI 250254 AAA
KBWI 250252Z 2503/2606 16006KT P6SM BKN100 OVC250
     FM250500 18007KT P6SM BKN090
     FM251300 22008KT P6SM SCT200
     FM260200 VRB03KT P6SM SCT090

FTUS80 KIAD 250254 AAB
KIAD 250252Z 2503/2606 18010G18KT P6SM BKN035
     FM250500 18008KT P6SM BKN120
     FM251300 22006KT P6SM SCT200
     FM260100 VRB03KT P6SM SCT050

FTUS51 KDCA 250254 AAA
KDCA 250252Z 2503/2606 14014KT P6SM SCT040 BKN250
     FM250500 17008KT P6SM BKN120
     FM251300 21008KT P6SM SCT200
     FM260200 VRB03KT P6SM SCT050

Raw METARs for WFO PHI CWA and Surrounding Areas

--TAFs--TimeTTdRHHIWCDirWindGPKVisWxPcpClouds
KRDG0320Z776157180910SCT049
OVC060
KABE0320Z756161190810FEW065
BKN075
OVC090
KTTN0320Z736165170610CLR
KPNE0320Z756161200610CLR
KPHL0320Z7563651801210FEW100
KILG0320Z7561611801010OVC055
KMIV0320Z756161190310BKN110
KACY0254Z746267200810CLR
--PA--TimeTTdRHHIWCDirWindGPKVisWxPcpClouds
KMPO0320Z705969180810OVC065
K22N0315Z686694calm10OVC050
KXLL0315Z736165210810SCT065
SCT080
KUKT0315Z756365190510BKN080
KCKZ0315Z736369200610FEW050
OVC085
KDYL0320Z756161190610CLR
KPTW0320Z736165180510FEW050
BKN085
KLOM0315Z746368180710BKN095
KOQN0315Z756161180310BKN085
KMQS0315Z736369VRB610SCT060
--NJ--TimeTTdRHHIWCDirWindGPKVisWxPcpClouds
KFWN0320Z736369220310BKN055
K12N0254Z746267VRB5
KMMU0315Z726373180510CLR
KSMQ0320Z726373180510CLR
KBLM0320Z736165200710CLR
KNEL0300Z716171190610CLR
KWRI0256Z7161711901010FEW220
KVAY0320Z736165180310CLR
KWWD0320Z7366781801010FEW080
--DE--TimeTTdRHHIWCDirWindGPKVisWxPcpClouds
K33N0315Z755957200910OVC055
KDOV0256Z735961170710BKN100
OVC120
KGED0320Z736369180910CLR
--MD--TimeTTdRHHIWCDirWindGPKVisWxPcpClouds
KESN0315Z776466170710BKN090
KCGE0315Z7763611701210FEW050
BKN095
--OKXTAF--TimeTTdRHHIWCDirWindGPKVisWxPcpClouds
KTEB0320Z7363691801210FEW095
KEWR0320Z776361180810SCT095
KLGA0320Z7564691801210CLR
KJFK0320Z7368831701310CLR
KISP0315Z726478160710CLR
KHPN0315Z686383140510CLR
KSWF0245Z735757200910BKN050
KBDR0320Z726683190310CLR
KGON0320Z686694calm10CLR
--LWXTAF--TimeTTdRHHIWCDirWindGPKVisWxPcpClouds
KMTN0315Z796461160121610OVC042
KBWI0320Z776361180510OVC038
KDCA0320Z7764651701410CLR
KIAD0320Z756674180101810CLR
KMRB0320Z736883170510CLR
KCHO0320Z757083210610OVC017
-Misc-TimeTTdRHHIWCDirWindGPKVisWxPcpClouds
KCDW0320Z776157190810CLR
KLNS0320Z756365160910FEW050
OVC070
KHZL0315Z725761150610SCT045
OVC055
KAVP0320Z755957200710OVC055
KCXY0320Z7963581701010BKN090
KMDT0320Z796154170710BKN095
KUNV0315Z706482250310CLR
KTHV0320Z756365170510BKN095
KSEG0320Z736474190510SCT080
KMUI0256Z716170calm10FEW060
BKN090
KAPG0258Z76656718089OVC080
KNHK0252Z786360160910SCT100
KOXB0320Z756674210101710CLR
KSBY0320Z726478170810FEW090
KWAL0320Z7366781901210FEW080
KBGM0320Z7057642001210SCT070
OVC090
KNYC0251Z746471calm10CLR
KMSV0320Z706378180810OVC060
KMGJ0320Z705764240310CLR
KPOU0320Z735757160310SCT090

 

KDIX Radar Loop

KDIX Radar

KDOX Radar Loop

KDOX Radar

Visible Satellite

Visible ImageVisible Loop

Infrared Satellite

Infrared ImageInfrared Loop

ZNY Briefing

ZNY Briefing

ZNY SWAP Statement

ZNY SWAP Statement

KPHL Wind Speed Outlook

KPHL Wind Outlook

KPHL Icing Outlook

KPHL Icing  Outlook

KPHL Compression Outlook

KPHL Compression Outlook

ZNY Day 1 SWAP

KPHL Day 1 SWAP

ZNY Day 2 SWAP

KPHL Day 2 SWAP

Turbulence PIREPs

Turbulence PIREPs

Icing PIREPs

Icing PIREPs

Weather/Sky PIREPs

Weather/Sky PIREPs

Current AIRMETs/SIGMETs

Current AIRMETs/SIGMETs

Sierra (Mountains/IFR) AIRMETs

Current 3-hr Forecast 6-hr Forecast

No Plot Available

No Plot Available

No Plot Available

9-hr Forecast 12-hr Forecast

No Plot Available

No Plot Available

Tango (Turbulence/LLWS) AIRMETs

Current 3-hr Forecast 6-hr Forecast

No Plot Available

No Plot Available

No Plot Available

9-hr Forecast 12-hr Forecast

No Plot Available

No Plot Available

Icing AIRMETs

Current 3-hr Forecast 6-hr Forecast

No Plot Available

No Plot Available

No Plot Available

9-hr Forecast 12-hr Forecast

No Plot Available

No Plot Available

Freezing Level AIRMETs

Current 3-hr Forecast 6-hr Forecast

No Plot Available

No Plot Available

No Plot Available

9-hr Forecast 12-hr Forecast

No Plot Available

No Plot Available